createdAt,value
2023-04-09T00:00:45.076Z,98181.41
2023-04-09T00:03:13.019Z,98191.88
2023-04-09T00:05:41.757Z,98179.63
2023-04-09T00:08:09.706Z,98187.53
2023-04-09T00:10:37.687Z,98184.16
2023-04-09T00:13:06.888Z,98174.59
2023-04-09T00:15:34.649Z,98181.59
2023-04-09T00:18:02.495Z,98180.84
2023-04-09T00:20:30.476Z,98169.34
2023-04-09T00:22:58.306Z,98173.69
2023-04-09T00:25:26.027Z,98170.13
2023-04-09T00:27:54.011Z,98171.84
2023-04-09T00:30:23.292Z,98169.28
2023-04-09T00:32:51.174Z,98171.84
2023-04-09T00:35:19.118Z,98173.53
2023-04-09T00:37:46.921Z,98166.75
2023-04-09T00:40:15.079Z,98167.59
2023-04-09T00:42:42.892Z,98163.31
2023-04-09T00:45:11.422Z,98164.97
2023-04-09T00:47:40.634Z,98158.94
2023-04-09T00:50:09.300Z,98165.03
2023-04-09T00:52:37.433Z,98165.03
2023-04-09T00:55:06.472Z,98163.22
2023-04-09T00:57:34.375Z,98165.75
2023-04-09T01:00:02.578Z,98166.75
2023-04-09T01:02:31.029Z,98160.75
2023-04-09T01:05:04.891Z,98162.66
2023-04-09T01:07:41.537Z,98166.03
2023-04-09T01:10:15.554Z,98161.75
2023-04-09T01:12:49.814Z,98162.72
2023-04-09T01:15:23.618Z,98161.97
2023-04-09T01:17:54.557Z,98161.91
2023-04-09T01:20:30.446Z,98158.44
2023-04-09T01:23:02.945Z,98158.69
2023-04-09T01:25:45.494Z,98157.66
2023-04-09T01:28:19.001Z,98156.00
2023-04-09T01:30:50.518Z,98140.59
2023-04-09T01:33:19.965Z,98156.00
2023-04-09T01:35:48.764Z,98158.69
2023-04-09T01:38:19.733Z,98154.31
2023-04-09T01:40:47.610Z,98161.25
2023-04-09T01:43:16.955Z,98139.16
2023-04-09T01:45:46.635Z,98150.13
2023-04-09T01:48:14.945Z,98158.06
2023-04-09T01:50:43.030Z,98154.75
2023-04-09T01:53:11.104Z,98160.03
2023-04-09T01:55:39.022Z,98154.84
2023-04-09T01:58:06.795Z,98161.00
2023-04-09T02:00:37.865Z,98164.50
2023-04-09T02:03:08.265Z,98159.41
2023-04-09T02:05:39.157Z,98166.38
2023-04-09T02:08:09.507Z,98170.00
2023-04-09T02:10:38.400Z,98162.44
2023-04-09T02:13:07.253Z,98161.75
2023-04-09T02:15:37.919Z,98161.03
2023-04-09T02:18:05.784Z,98160.25
2023-04-09T02:20:33.536Z,98163.88
2023-04-09T02:23:01.264Z,98165.72
2023-04-09T02:25:29.071Z,98170.94
2023-04-09T02:27:56.777Z,98168.41
2023-04-09T02:30:24.800Z,98158.19
2023-04-09T02:32:53.945Z,98166.13
2023-04-09T02:35:21.783Z,98165.25
2023-04-09T02:37:49.531Z,98165.41
2023-04-09T02:40:17.326Z,98157.75
2023-04-09T02:42:45.095Z,98164.00
2023-04-09T02:45:12.821Z,98158.91
2023-04-09T02:47:40.634Z,98166.94
2023-04-09T02:50:10.324Z,98146.56
2023-04-09T02:52:38.181Z,98168.16
2023-04-09T02:55:06.685Z,98171.72
2023-04-09T02:57:34.581Z,98162.19
2023-04-09T03:00:02.351Z,98163.16
2023-04-09T03:02:30.230Z,98157.13
2023-04-09T03:04:58.045Z,98153.69
2023-04-09T03:07:27.168Z,98157.13
2023-04-09T03:09:54.949Z,98149.31
2023-04-09T03:12:22.717Z,98148.47
2023-04-09T03:14:50.559Z,98150.31
2023-04-09T03:17:18.304Z,98148.69
2023-04-09T03:19:46.176Z,98145.31
2023-04-09T03:22:13.879Z,98142.78
2023-04-09T03:24:43.060Z,98138.59
2023-04-09T03:27:10.843Z,98136.13
2023-04-09T03:29:38.614Z,98137.09
2023-04-09T03:32:06.652Z,98139.00
2023-04-09T03:34:34.477Z,98133.03
2023-04-09T03:37:02.472Z,98126.22
2023-04-09T03:39:31.024Z,98128.19
2023-04-09T03:42:00.210Z,98131.06
2023-04-09T03:44:28.004Z,98125.25
2023-04-09T03:46:55.858Z,98127.25
2023-04-09T03:49:23.771Z,98130.78
2023-04-09T03:51:51.640Z,98127.47
2023-04-09T03:54:19.387Z,98126.78
2023-04-09T03:56:47.199Z,98125.13
2023-04-09T03:59:16.334Z,98121.69
2023-04-09T04:01:44.208Z,98120.09
2023-04-09T04:04:12.117Z,98122.00
2023-04-09T04:06:39.942Z,98131.59
2023-04-09T04:09:07.724Z,98129.13
2023-04-09T04:11:35.572Z,98129.97
2023-04-09T04:14:03.338Z,98130.94
2023-04-09T04:16:32.586Z,98129.22
2023-04-09T04:19:00.425Z,98132.81
2023-04-09T04:21:28.267Z,98133.72
2023-04-09T04:23:56.029Z,98134.66
2023-04-09T04:26:23.808Z,98131.31
2023-04-09T04:28:51.750Z,98132.22
2023-04-09T04:31:19.720Z,98138.34
2023-04-09T04:33:48.869Z,98128.94
2023-04-09T04:36:16.637Z,98142.84
2023-04-09T04:38:44.402Z,98135.22
2023-04-09T04:41:12.523Z,98133.50
2023-04-09T04:43:41.470Z,98135.41
2023-04-09T04:46:09.413Z,98139.72
2023-04-09T04:48:37.177Z,98135.41
2023-04-09T04:51:06.473Z,98137.97
2023-04-09T04:53:34.260Z,98133.69
2023-04-09T04:56:02.063Z,98137.19
2023-04-09T04:58:30.862Z,98138.13
2023-04-09T05:00:58.765Z,98140.72
2023-04-09T05:03:27.671Z,98139.88
2023-04-09T05:05:55.617Z,98142.41
2023-04-09T05:08:24.760Z,98141.50
2023-04-09T05:10:55.995Z,98143.19
2023-04-09T05:13:24.025Z,98145.75
2023-04-09T05:15:51.815Z,98143.03
2023-04-09T05:18:19.574Z,98148.22
2023-04-09T05:20:47.384Z,98142.13
2023-04-09T05:23:15.100Z,98147.19
2023-04-09T05:25:44.259Z,98152.28
2023-04-09T05:28:12.301Z,98153.03
2023-04-09T05:30:40.106Z,98153.81
2023-04-09T05:33:07.859Z,98152.75
2023-04-09T05:35:39.820Z,98149.06
2023-04-09T05:38:07.752Z,98129.34
2023-04-09T05:40:35.565Z,98153.81
2023-04-09T05:43:04.709Z,98154.44
2023-04-09T05:45:32.454Z,98152.47
2023-04-09T05:48:00.277Z,98154.81
2023-04-09T05:50:28.066Z,98151.16
2023-04-09T05:52:55.883Z,98153.50
2023-04-09T05:55:24.330Z,98158.56
2023-04-09T05:57:53.950Z,98165.28
2023-04-09T06:00:23.625Z,98153.75
2023-04-09T06:02:52.027Z,98164.81
2023-04-09T06:05:19.809Z,98158.41
2023-04-09T06:07:48.194Z,98154.63
2023-04-09T06:10:16.143Z,98164.72
2023-04-09T06:12:43.923Z,98159.19
2023-04-09T06:15:12.618Z,98159.75
2023-04-09T06:17:42.000Z,98154.22
2023-04-09T06:20:10.996Z,98161.03
2023-04-09T06:22:38.908Z,98162.28
2023-04-09T06:25:08.010Z,98162.06
2023-04-09T06:27:36.382Z,98152.25
2023-04-09T06:30:04.178Z,98164.75
2023-04-09T06:32:35.531Z,98164.97
2023-04-09T06:35:11.073Z,98158.44
2023-04-09T06:37:39.155Z,98169.16
2023-04-09T06:40:08.468Z,98170.63
2023-04-09T06:42:36.555Z,98170.06
2023-04-09T06:45:08.560Z,98173.72
2023-04-09T06:47:36.854Z,98171.75
2023-04-09T06:50:05.754Z,98172.66
2023-04-09T06:52:35.417Z,98168.03
2023-04-09T06:55:03.198Z,98174.50
2023-04-09T06:57:31.224Z,98179.06
2023-04-09T06:59:59.464Z,98171.22
2023-04-09T07:02:28.185Z,98177.50
2023-04-09T07:04:56.177Z,98169.50
2023-04-09T07:07:25.858Z,98172.94
2023-04-09T07:09:55.619Z,98177.66
2023-04-09T07:12:30.028Z,98187.13
2023-04-09T07:14:59.356Z,98183.50
2023-04-09T07:17:27.209Z,98173.19
2023-04-09T07:19:56.037Z,98170.00
2023-04-09T07:22:24.154Z,98177.16
2023-04-09T07:24:54.469Z,98174.94
2023-04-09T07:27:24.684Z,98172.81
2023-04-09T07:29:52.561Z,98176.25
2023-04-09T07:32:20.535Z,98179.53
2023-04-09T07:34:48.600Z,98179.75
2023-04-09T07:37:17.086Z,98177.44
2023-04-09T07:39:45.188Z,98188.56
2023-04-09T07:42:12.912Z,98184.19
2023-04-09T07:44:42.179Z,98189.16
2023-04-09T07:47:10.616Z,98187.84
2023-04-09T07:49:39.174Z,98177.63
2023-04-09T07:52:07.758Z,98183.28
2023-04-09T07:54:35.929Z,98186.09
2023-04-09T07:57:04.706Z,98179.38
2023-04-09T07:59:32.889Z,98193.06
2023-04-09T08:02:02.169Z,98192.31
2023-04-09T08:04:30.723Z,98189.84
2023-04-09T08:06:58.558Z,98188.06
2023-04-09T08:09:26.305Z,98194.69
2023-04-09T08:11:54.143Z,98188.19
2023-04-09T08:14:22.002Z,98192.94
2023-04-09T08:16:50.633Z,98196.53
2023-04-09T08:19:20.430Z,98195.81
2023-04-09T08:21:49.652Z,98188.50
2023-04-09T08:24:18.339Z,98193.09
2023-04-09T08:26:46.366Z,98189.50
2023-04-09T08:29:16.451Z,98194.81
2023-04-09T08:31:44.390Z,98206.78
2023-04-09T08:34:13.086Z,98207.28
2023-04-09T08:36:42.251Z,98205.22
2023-04-09T08:39:10.032Z,98216.19
2023-04-09T08:41:41.879Z,98204.50
2023-04-09T08:44:09.817Z,98214.56
2023-04-09T08:46:37.819Z,98212.13
2023-04-09T08:49:05.682Z,98211.88
2023-04-09T08:51:33.426Z,98212.63
2023-04-09T08:54:04.752Z,98217.59
2023-04-09T08:56:33.632Z,98212.97
2023-04-09T08:59:01.376Z,98208.31
2023-04-09T09:01:31.470Z,98215.78
2023-04-09T09:04:00.919Z,98211.63
2023-04-09T09:06:32.020Z,98211.81
2023-04-09T09:09:08.371Z,98214.44
2023-04-09T09:11:37.244Z,98216.28
2023-04-09T09:14:06.087Z,98227.72
2023-04-09T09:16:35.913Z,98232.13
2023-04-09T09:19:04.160Z,98224.44
2023-04-09T09:21:31.955Z,98221.28
2023-04-09T09:23:59.742Z,98221.81
2023-04-09T09:26:30.116Z,98219.78
2023-04-09T09:28:59.454Z,98222.56
2023-04-09T09:31:27.631Z,98223.50
2023-04-09T09:33:55.749Z,98206.00
2023-04-09T09:36:34.068Z,98233.72
2023-04-09T09:39:05.368Z,98233.97
2023-04-09T09:41:34.466Z,98219.06
2023-04-09T09:44:03.511Z,98223.72
2023-04-09T09:46:33.747Z,98223.28
2023-04-09T09:49:01.717Z,98224.25
2023-04-09T09:51:30.041Z,98227.94
2023-04-09T09:53:58.420Z,98214.31
2023-04-09T09:56:32.383Z,98218.31
2023-04-09T09:59:08.518Z,98198.25
2023-04-09T10:01:36.910Z,98211.53
2023-04-09T10:04:07.423Z,98187.66
2023-04-09T10:06:35.691Z,98207.00
2023-04-09T10:09:06.436Z,98206.34
2023-04-09T10:11:34.913Z,98194.50
2023-04-09T10:14:05.268Z,98192.91
2023-04-09T10:16:34.789Z,98193.78
2023-04-09T10:19:03.419Z,98186.22
2023-04-09T10:21:37.801Z,98197.03
2023-04-09T10:24:07.995Z,98182.44
2023-04-09T10:26:37.002Z,98178.75
2023-04-09T10:29:13.961Z,98178.63
2023-04-09T10:31:55.984Z,98182.00
2023-04-09T10:34:24.891Z,98194.69
2023-04-09T10:36:54.641Z,98184.00
2023-04-09T10:39:22.594Z,98178.75
2023-04-09T10:41:51.042Z,98157.06
2023-04-09T10:44:23.354Z,98185.38
2023-04-09T10:46:51.523Z,98191.41
2023-04-09T10:49:20.986Z,98190.84
2023-04-09T10:51:56.126Z,98179.97
2023-04-09T10:54:47.197Z,98181.31
2023-04-09T10:57:20.081Z,98186.00
2023-04-09T10:59:50.882Z,98184.78
2023-04-09T11:02:39.210Z,98194.28
2023-04-09T11:05:13.315Z,98191.53
2023-04-09T11:07:42.519Z,98199.13
2023-04-09T11:10:10.716Z,98189.72
2023-04-09T11:12:38.442Z,98185.56
2023-04-09T11:15:17.023Z,98172.63
2023-04-09T11:17:45.022Z,98193.44
2023-04-09T11:20:12.858Z,98187.81
2023-04-09T11:22:40.618Z,98186.81
2023-04-09T11:25:09.072Z,98174.97
2023-04-09T11:27:38.950Z,98175.06
2023-04-09T11:30:09.596Z,98172.84
2023-04-09T11:32:37.449Z,98176.97
2023-04-09T11:35:05.790Z,98180.69
2023-04-09T11:37:33.587Z,98174.91
2023-04-09T11:40:01.348Z,98178.13
2023-04-09T11:42:32.158Z,98176.44
2023-04-09T11:45:00.943Z,98175.25
2023-04-09T11:47:30.361Z,98174.09
2023-04-09T11:49:58.189Z,98176.88
2023-04-09T11:52:27.954Z,98173.16
2023-04-09T11:54:55.713Z,98178.34
2023-04-09T11:57:23.554Z,98162.97
2023-04-09T11:59:51.432Z,98171.16
2023-04-09T12:02:19.760Z,98165.31
2023-04-09T12:04:52.414Z,98166.28
2023-04-09T12:07:20.274Z,98168.16
2023-04-09T12:09:49.880Z,98167.97
2023-04-09T12:12:21.318Z,98156.59
2023-04-09T12:14:51.917Z,98169.88
2023-04-09T12:17:22.100Z,98164.31
2023-04-09T12:19:50.080Z,98170.25
2023-04-09T12:22:19.176Z,98164.31
2023-04-09T12:24:46.996Z,98144.69
2023-04-09T12:27:14.728Z,98155.91
2023-04-09T12:29:42.531Z,98157.75
2023-04-09T12:32:10.412Z,98152.28
2023-04-09T12:34:38.312Z,98159.59
2023-04-09T12:37:06.026Z,98146.66
2023-04-09T12:39:35.128Z,98131.56
2023-04-09T12:42:03.030Z,98138.81
2023-04-09T12:44:33.112Z,98138.88
2023-04-09T12:47:01.105Z,98134.72
2023-04-09T12:49:29.479Z,98131.72
2023-04-09T12:51:57.242Z,98137.63
2023-04-09T12:54:25.055Z,98131.38
2023-04-09T12:56:54.193Z,98145.50
2023-04-09T12:59:21.933Z,98147.16
2023-04-09T13:01:49.755Z,98140.13
2023-04-09T13:04:17.686Z,98138.22
2023-04-09T13:06:45.547Z,98144.00
2023-04-09T13:09:13.301Z,98134.22
2023-04-09T13:11:41.336Z,98136.88
2023-04-09T13:14:14.463Z,98140.59
2023-04-09T13:16:42.739Z,98137.59
2023-04-09T13:19:11.225Z,98134.25
2023-04-09T13:21:38.969Z,98137.81
2023-04-09T13:24:07.060Z,98141.00
2023-04-09T13:26:34.799Z,98141.19
2023-04-09T13:29:02.908Z,98146.44
2023-04-09T13:31:32.193Z,98129.91
2023-04-09T13:34:00.072Z,98131.19
2023-04-09T13:36:27.989Z,98128.69
2023-04-09T13:38:56.336Z,98113.81
2023-04-09T13:41:27.820Z,98119.38
2023-04-09T13:43:56.108Z,98126.53
2023-04-09T13:46:23.950Z,98114.78
2023-04-09T13:48:54.881Z,98111.00
2023-04-09T13:51:23.049Z,98112.13
2023-04-09T13:53:50.895Z,98110.00
2023-04-09T13:56:18.702Z,98111.84
2023-04-09T13:58:46.837Z,98116.13
2023-04-09T14:01:14.971Z,98110.75
2023-04-09T14:03:43.231Z,98112.09
2023-04-09T14:06:13.545Z,98112.50
2023-04-09T14:08:41.324Z,98109.88
2023-04-09T14:11:10.999Z,98110.84
2023-04-09T14:13:38.741Z,98101.56
2023-04-09T14:16:07.891Z,98108.97
2023-04-09T14:18:35.767Z,98106.38
2023-04-09T14:21:03.587Z,98093.94
2023-04-09T14:23:32.767Z,98094.88
2023-04-09T14:26:00.538Z,98096.28
2023-04-09T14:28:28.361Z,98086.81
2023-04-09T14:30:56.567Z,98089.19
2023-04-09T14:33:24.399Z,98090.47
2023-04-09T14:35:52.306Z,98083.94
2023-04-09T14:38:20.148Z,98084.00
2023-04-09T14:40:49.252Z,98087.81
2023-04-09T14:43:16.997Z,98082.66
2023-04-09T14:45:44.832Z,98083.09
2023-04-09T14:48:12.662Z,98085.88
2023-04-09T14:50:41.233Z,98089.41
2023-04-09T14:53:09.011Z,98079.34
2023-04-09T14:55:37.002Z,98077.59
2023-04-09T14:58:08.125Z,98073.09
2023-04-09T15:00:36.193Z,98072.19
2023-04-09T15:03:04.180Z,98066.47
2023-04-09T15:05:32.176Z,98062.75
2023-04-09T15:07:59.973Z,98065.81
2023-04-09T15:10:27.783Z,98055.75
2023-04-09T15:12:55.565Z,98063.03
2023-04-09T15:15:24.843Z,98065.25
2023-04-09T15:17:52.638Z,98062.59
2023-04-09T15:20:20.462Z,98065.06
2023-04-09T15:22:48.318Z,98064.38
2023-04-09T15:25:16.350Z,98058.78
2023-04-09T15:27:46.512Z,98065.59
2023-04-09T15:30:14.284Z,98057.44
2023-04-09T15:32:43.420Z,98063.69
2023-04-09T15:35:11.416Z,98042.94
2023-04-09T15:37:39.150Z,98061.50
2023-04-09T15:40:08.065Z,98065.03
2023-04-09T15:42:35.857Z,98052.78
2023-04-09T15:45:03.771Z,98050.69
2023-04-09T15:47:33.258Z,98053.66
2023-04-09T15:50:02.664Z,98052.97
2023-04-09T15:52:30.483Z,98055.47
2023-04-09T15:54:58.230Z,98051.94
2023-04-09T15:57:25.977Z,98053.50
2023-04-09T15:59:53.821Z,98049.81
2023-04-09T16:02:22.688Z,98044.31
2023-04-09T16:04:51.285Z,98046.72
2023-04-09T16:07:20.528Z,98031.75
2023-04-09T16:09:48.317Z,98041.56
2023-04-09T16:12:16.117Z,98046.00
2023-04-09T16:14:44.607Z,98048.56
2023-04-09T16:17:12.362Z,98052.03
2023-04-09T16:19:40.137Z,98046.22
2023-04-09T16:22:08.558Z,98047.22
2023-04-09T16:24:37.655Z,98034.31
2023-04-09T16:27:05.457Z,98041.31
2023-04-09T16:29:33.288Z,98054.88
2023-04-09T16:32:01.179Z,98041.19
2023-04-09T16:34:31.449Z,98042.13
2023-04-09T16:36:59.302Z,98039.44
2023-04-09T16:39:27.033Z,98037.53
2023-04-09T16:41:56.662Z,98046.97
2023-04-09T16:44:24.544Z,98043.47
2023-04-09T16:46:52.360Z,98041.03
2023-04-09T16:49:20.142Z,98033.97
2023-04-09T16:51:47.967Z,98047.66
2023-04-09T16:54:15.819Z,98041.03
2023-04-09T16:56:43.619Z,98038.25
2023-04-09T16:59:13.526Z,98046.31
2023-04-09T17:01:41.369Z,98043.47
2023-04-09T17:04:09.292Z,98030.19
2023-04-09T17:06:37.100Z,98035.44
2023-04-09T17:09:06.656Z,98034.03
2023-04-09T17:11:34.554Z,98036.84
2023-04-09T17:14:02.360Z,98031.31
2023-04-09T17:16:31.604Z,98026.78
2023-04-09T17:18:59.414Z,98026.59
2023-04-09T17:21:27.465Z,98025.53
2023-04-09T17:23:55.313Z,98025.13
2023-04-09T17:26:23.207Z,98029.97
2023-04-09T17:28:51.179Z,98032.28
2023-04-09T17:31:19.280Z,98026.34
2023-04-09T17:33:48.745Z,98031.66
2023-04-09T17:36:18.598Z,98027.03
2023-04-09T17:38:46.447Z,98033.47
2023-04-09T17:41:14.401Z,98039.31
2023-04-09T17:43:42.172Z,98034.63
2023-04-09T17:46:10.044Z,98033.34
2023-04-09T17:48:38.089Z,98029.75
2023-04-09T17:51:08.264Z,98032.84
2023-04-09T17:53:36.094Z,98027.22
2023-04-09T17:56:04.271Z,98029.50
2023-04-09T17:58:32.135Z,98030.66
2023-04-09T18:00:59.990Z,98034.91
2023-04-09T18:03:28.051Z,98040.75
2023-04-09T18:05:56.261Z,98045.69
2023-04-09T18:08:25.662Z,98050.50
2023-04-09T18:11:04.963Z,98042.91
2023-04-09T18:13:39.020Z,98044.94
2023-04-09T18:16:10.145Z,98045.75
2023-04-09T18:18:37.936Z,98044.81
2023-04-09T18:21:06.845Z,98039.44
2023-04-09T18:23:36.168Z,98043.69
2023-04-09T18:26:03.955Z,98042.72
2023-04-09T18:28:31.769Z,98049.53
2023-04-09T18:30:59.601Z,98043.09
2023-04-09T18:33:27.564Z,98042.81
2023-04-09T18:35:55.365Z,98039.97
2023-04-09T18:38:23.265Z,98032.53
2023-04-09T18:40:52.444Z,98047.09
2023-04-09T18:43:20.353Z,98047.53
2023-04-09T18:45:49.494Z,98043.84
2023-04-09T18:48:17.275Z,98052.97
2023-04-09T18:50:45.041Z,98042.03
2023-04-09T18:53:12.974Z,98046.72
2023-04-09T18:55:40.710Z,98056.69
2023-04-09T18:58:12.823Z,98053.63
2023-04-09T19:00:40.910Z,98063.66
2023-04-09T19:03:09.284Z,98067.47
2023-04-09T19:05:37.464Z,98065.19
2023-04-09T19:08:05.654Z,98056.03
2023-04-09T19:10:33.496Z,98060.03
2023-04-09T19:13:01.257Z,98047.34
2023-04-09T19:15:30.536Z,98053.72
2023-04-09T19:17:58.461Z,98049.53
2023-04-09T19:20:26.325Z,98033.41
2023-04-09T19:22:56.583Z,98042.25
2023-04-09T19:25:24.537Z,98050.56
2023-04-09T19:27:54.197Z,98049.97
2023-04-09T19:30:22.080Z,98041.44
2023-04-09T19:32:51.442Z,98045.78
2023-04-09T19:35:19.193Z,98044.25
2023-04-09T19:37:47.079Z,98044.41
2023-04-09T19:40:16.986Z,98048.94
2023-04-09T19:42:44.939Z,98048.28
2023-04-09T19:45:13.547Z,98044.16
2023-04-09T19:47:41.833Z,98043.38
2023-04-09T19:50:11.982Z,98035.88
2023-04-09T19:52:41.442Z,98046.41
2023-04-09T19:55:10.646Z,98045.88
2023-04-09T19:57:38.968Z,98053.16
2023-04-09T20:00:08.662Z,98050.69
2023-04-09T20:02:37.691Z,98051.78
2023-04-09T20:05:06.137Z,98049.41
2023-04-09T20:07:35.351Z,98046.00
2023-04-09T20:10:03.885Z,98053.03
2023-04-09T20:12:32.032Z,98041.75
2023-04-09T20:15:01.233Z,98043.75
2023-04-09T20:17:29.023Z,98043.94
2023-04-09T20:19:56.795Z,98041.53
2023-04-09T20:22:24.677Z,98041.69
2023-04-09T20:24:55.470Z,98033.28
2023-04-09T20:27:23.499Z,98037.91
2023-04-09T20:29:51.666Z,98047.56
2023-04-09T20:32:19.885Z,98043.34
2023-04-09T20:34:47.795Z,98043.47
2023-04-09T20:37:15.602Z,98034.81
2023-04-09T20:39:43.410Z,98042.94
2023-04-09T20:42:12.554Z,98037.91
2023-04-09T20:44:40.302Z,98046.78
2023-04-09T20:47:08.225Z,98040.84
2023-04-09T20:49:36.089Z,98035.91
2023-04-09T20:52:03.902Z,98043.00
2023-04-09T20:54:31.695Z,98032.63
2023-04-09T20:57:00.225Z,98032.81
2023-04-09T20:59:29.395Z,98036.19
2023-04-09T21:01:57.324Z,98038.81
2023-04-09T21:04:25.550Z,98029.25
2023-04-09T21:06:53.423Z,98033.00
2023-04-09T21:09:21.292Z,98031.41
2023-04-09T21:11:49.077Z,98030.75
2023-04-09T21:14:16.910Z,98026.59
2023-04-09T21:16:46.180Z,98032.94
2023-04-09T21:19:14.019Z,98033.84
2023-04-09T21:21:41.781Z,98026.13
2023-04-09T21:24:09.552Z,98035.84
2023-04-09T21:26:50.057Z,98030.72
2023-04-09T21:29:19.806Z,98035.19
2023-04-09T21:31:49.044Z,98030.09
2023-04-09T21:34:17.182Z,98029.31
2023-04-09T21:36:46.342Z,98033.88
2023-04-09T21:39:14.152Z,98033.16
2023-04-09T21:41:41.888Z,98029.13
2023-04-09T21:44:09.710Z,98033.56
2023-04-09T21:46:38.022Z,98028.50
2023-04-09T21:49:07.204Z,98024.22
2023-04-09T21:51:34.969Z,98027.88
2023-04-09T21:54:04.204Z,98030.63
2023-04-09T21:56:32.020Z,98029.84
2023-04-09T21:59:00.811Z,98030.91
2023-04-09T22:01:30.434Z,98019.63
2023-04-09T22:03:58.344Z,98019.69
2023-04-09T22:06:28.820Z,98015.47
2023-04-09T22:08:57.994Z,98017.16
2023-04-09T22:11:28.277Z,98016.44
2023-04-09T22:13:56.740Z,98011.34
2023-04-09T22:16:25.222Z,98008.81
2023-04-09T22:18:54.846Z,98005.41
2023-04-09T22:21:23.079Z,98004.53
2023-04-09T22:23:52.452Z,98006.31
2023-04-09T22:26:21.567Z,98009.78
2023-04-09T22:28:50.360Z,98010.75
2023-04-09T22:31:18.472Z,98011.91
2023-04-09T22:33:46.582Z,98016.44
2023-04-09T22:36:14.401Z,98018.16
2023-04-09T22:38:42.833Z,98019.13
2023-04-09T22:41:12.443Z,98011.34
2023-04-09T22:43:40.203Z,98020.69
2023-04-09T22:46:08.125Z,98011.91
2023-04-09T22:48:43.840Z,98019.84
2023-04-09T22:51:12.839Z,98013.03
2023-04-09T22:53:41.299Z,98013.84
2023-04-09T22:56:09.684Z,98015.66
2023-04-09T22:58:38.966Z,98015.72
2023-04-09T23:01:07.545Z,98011.50
2023-04-09T23:03:35.719Z,98009.84
2023-04-09T23:06:03.522Z,98006.53
2023-04-09T23:08:31.593Z,98005.81
2023-04-09T23:10:59.695Z,97994.81
2023-04-09T23:13:27.432Z,98000.13
2023-04-09T23:15:56.655Z,98003.81
2023-04-09T23:18:24.725Z,98005.63
2023-04-09T23:20:52.517Z,98006.44
2023-04-09T23:23:20.679Z,98009.16
2023-04-09T23:25:48.490Z,98005.00
2023-04-09T23:28:16.586Z,98015.53
2023-04-09T23:30:45.512Z,98014.56
2023-04-09T23:33:15.074Z,98017.03
2023-04-09T23:35:42.802Z,98015.16
2023-04-09T23:38:11.478Z,98019.66
2023-04-09T23:40:39.653Z,97997.53
2023-04-09T23:43:07.552Z,98017.25
2023-04-09T23:45:35.419Z,98023.47
2023-04-09T23:48:04.720Z,98018.38
2023-04-09T23:50:33.902Z,98028.06
2023-04-09T23:53:03.974Z,98027.31
2023-04-09T23:55:33.352Z,98027.41
2023-04-09T23:58:01.663Z,98033.63
